Wetterdaten: Oktober 2012
Datum Temp Feuchte Luftdruck Regen Wind Richtung Sonnenschein UV Solar Windben
01.10.2012 8,1 C 82 % 1016,3 hPa 0,0 l/m 1,1 km/h S-SW 8,75 h 1,9 UV-I 313 W/m 3,6 km/h
02.10.2012 13,0 C 86 % 1014,8 hPa 0,0 l/m 0,6 km/h S 1,92 h 1,4 UV-I 157 W/m 4,0 km/h
03.10.2012 12,5 C 87 % 1010,2 hPa 5,6 l/m 9,2 km/h S 2,33 h 1,2 UV-I 161 W/m 22,1 km/h
04.10.2012 9,4 C 93 % 1009,0 hPa 22,4 l/m 3,8 km/h S 0,17 h 0,7 UV-I 54 W/m 10,0 km/h
05.10.2012 11,4 C 92 % 1009,3 hPa 9,0 l/m 9,4 km/h S 0,00 h 0,6 UV-I 46 W/m 21,7 km/h
06.10.2012 9,5 C 96 % 1011,2 hPa 6,8 l/m 5,4 km/h S 0,00 h 0,8 UV-I 63 W/m 12,5 km/h
07.10.2012 7,5 C 88 % 1019,3 hPa 0,0 l/m 0,9 km/h NW 2,08 h 1,3 UV-I 148 W/m 3,6 km/h
08.10.2012 5,6 C 85 % 1017,0 hPa 0,2 l/m 0,2 km/h S 6,17 h 1,6 UV-I 259 W/m 2,0 km/h
09.10.2012 5,6 C 88 % 1014,2 hPa 0,0 l/m 0,4 km/h N-NW 3,17 h 1,3 UV-I 190 W/m 2,4 km/h
10.10.2012 4,8 C 89 % 1015,8 hPa 0,2 l/m 0,5 km/h NW 2,42 h 1,4 UV-I 177 W/m 2,4 km/h
11.10.2012 6,6 C 83 % 1012,1 hPa 0,2 l/m 2,5 km/h SO 8,58 h 1,6 UV-I 281 W/m 13,3 km/h
12.10.2012 8,5 C 89 % 1007,7 hPa 6,8 l/m 4,9 km/h S-SO 0,00 h 0,6 UV-I 45 W/m 20,1 km/h
13.10.2012 8,4 C 85 % 1007,1 hPa 0,8 l/m 14,8 km/h S-SO 5,08 h 1,2 UV-I 194 W/m 22,1 km/h
14.10.2012 6,9 C 87 % 1000,0 hPa 2,8 l/m 5,8 km/h S 1,58 h 1,0 UV-I 141 W/m 11,7 km/h
15.10.2012 4,9 C 96 % 1005,6 hPa 6,0 l/m 0,9 km/h S-SW 2,00 h 0,8 UV-I 103 W/m 9,3 km/h
16.10.2012 5,7 C 93 % 1008,7 hPa 1,4 l/m 8,2 km/h S 3,58 h 1,1 UV-I 131 W/m 16,9 km/h
17.10.2012 10,5 C 88 % 1010,0 hPa 0,2 l/m 15,4 km/h S-SO 0,58 h 0,8 UV-I 86 W/m 25,4 km/h
18.10.2012 14,6 C 77 % 1010,9 hPa 0,0 l/m 10,4 km/h S-SO 6,67 h 1,4 UV-I 213 W/m 18,5 km/h
19.10.2012 14,7 C 79 % 1013,2 hPa 0,0 l/m 7,1 km/h S-SO 7,42 h 1,2 UV-I 213 W/m 14,4 km/h
20.10.2012 14,6 C 87 % 1017,2 hPa 0,0 l/m 0,0 km/h S 8,08 h 1,3 UV-I 208 W/m 0,4 km/h
21.10.2012 16,5 C 81 % 1017,3 hPa 0,0 l/m 1,3 km/h S-SO 6,58 h 1,4 UV-I 221 W/m 6,4 km/h
22.10.2012 13,6 C 85 % 1021,9 hPa 0,0 l/m 1,7 km/h SO 7,33 h 1,3 UV-I 221 W/m 8,9 km/h
23.10.2012 9,9 C 93 % 1024,0 hPa 0,0 l/m 4,6 km/h S-SO 1,25 h 1,1 UV-I 134 W/m 14,5 km/h
24.10.2012 7,9 C 97 % 1020,0 hPa 0,0 l/m 0,1 km/h S-SO 0,00 h 0,6 UV-I 49 W/m 0,8 km/h
25.10.2012 7,6 C 93 % 1014,0 hPa 0,2 l/m 4,6 km/h N-NW 0,25 h 0,6 UV-I 47 W/m 14,5 km/h
26.10.2012 2,7 C 76 % 1008,5 hPa 0,2 l/m 1,4 km/h O-SO 4,67 h 1,0 UV-I 144 W/m 7,2 km/h
27.10.2012 0,4 C 79 % 1007,8 hPa 0,0 l/m 2,1 km/h N-NO 4,92 h 1,1 UV-I 208 W/m 7,3 km/h
28.10.2012 -1,3 C 89 % 1016,5 hPa 0,4 l/m 0,0 km/h N 3,67 h 1,0 UV-I 160 W/m 0,0 km/h
29.10.2012 1,3 C 88 % 1010,8 hPa 4,2 l/m 6,3 km/h S 2,08 h 0,8 UV-I 124 W/m 11,7 km/h
30.10.2012 4,7 C 96 % 1003,2 hPa 11,0 l/m 3,1 km/h S 1,75 h 0,8 UV-I 110 W/m 7,2 km/h
31.10.2012 5,6 C 86 % 998,7 hPa 0,2 l/m 14,0 km/h S-SO 6,08 h 0,9 UV-I 168 W/m 23,3 km/h
Min-Datum 28.10.12 01.10.12 31.10.12 19 Tage 01.10.12 - - - - 01.10.12
Min-Zeit 05:20 16:55 23:45 - 00:00 - - - - 00:05
Minimum -5,8 C 47 % 994,8 hPa - 0,0 km/h - - - - 0,0 km/h
Max-Datum 20.10.12 24.10.12 23.10.12 04.10.12 03.10.12 - 01.10.12 02.10.12 09.10.12 05.10.12
Max-Zeit 13:10 06:50 12:55 12:55 16:35 - 17:30 13:55 14:00 14:00
Maximum 22,3 C 100 % 1025,1 hPa 22,4 l/m 32,7 km/h
S
- 8,67 h 3,2 UV-I 686 W/m 61,2 km/h
S
Durchschnitt 8,1 C 87 % 1012,0 hPa #78,6 l/m 4,5 km/h S #109:10 h 1,1 UV-I 154 W/m 10,9 km/h

Durchschnitt Minimum Temp.4,2 C
Durchschnitt Maximum Temp.12,8 C